50R weather

Lockhart Municipal Airport
Lockhart, Texas, United States

Public forecast

Using degrees Fahrenheit for public forecast. Weather courtesy of forecast.io.

METAR (pilot weather report)

Closest report is San Marcos Regional Airport, 10.2 nm (19.0 km) WNW. Retrieved 2019/09/16 12:56 UTC (51 minutes ago):

KHYI 161256Z 33005KT 10SM CLR 23/20 A3003 RMK AO2 SLP161 T02330200

TAF (pilot weather forecast)

Closest forecast is Austin Bergstrom International Airport, 20.7 nm (38.3 km) N. Retrieved 2019/09/16 12:22 UTC (1 hour ago):

TAF KAUS 161120Z 1612/1718 VRB03KT P6SM SCT070 SCT250 FM161700 06008KT P6SM SCT070 SCT250 FM170000 09007KT P6SM BKN070 FM170200 12004KT P6SM SCT070 SCT250 FM171200 05006KT P6SM BKN025